createdAt,value
2023-12-21T00:01:35.714Z,7.50
2023-12-21T00:04:06.057Z,7.30
2023-12-21T00:06:34.510Z,7.60
2023-12-21T00:09:02.452Z,6.80
2023-12-21T00:11:30.588Z,6.80
2023-12-21T00:13:58.602Z,7.20
2023-12-21T00:16:26.627Z,7.40
2023-12-21T00:18:54.684Z,7.00
2023-12-21T00:21:24.249Z,7.60
2023-12-21T00:23:52.118Z,7.10
2023-12-21T00:26:20.184Z,6.80
2023-12-21T00:28:48.170Z,6.90
2023-12-21T00:31:16.142Z,6.80
2023-12-21T00:33:44.138Z,6.70
2023-12-21T00:36:17.636Z,7.30
2023-12-21T00:38:47.181Z,7.30
2023-12-21T00:41:15.202Z,7.50
2023-12-21T00:43:43.262Z,7.50
2023-12-21T00:46:11.554Z,7.70
2023-12-21T00:48:39.811Z,7.70
2023-12-21T00:51:08.687Z,7.50
2023-12-21T00:53:36.756Z,6.90
2023-12-21T00:56:06.690Z,7.60
2023-12-21T00:58:34.641Z,7.40
2023-12-21T01:01:02.704Z,6.80
2023-12-21T01:03:30.892Z,7.00
2023-12-21T01:05:59.043Z,7.40
2023-12-21T01:08:27.047Z,7.40
2023-12-21T01:10:54.947Z,7.00
2023-12-21T01:13:26.545Z,6.90
2023-12-21T01:15:54.615Z,7.40
2023-12-21T01:18:22.729Z,7.50
2023-12-21T01:20:50.702Z,7.90
2023-12-21T01:23:19.229Z,7.50
2023-12-21T01:25:47.647Z,7.00
2023-12-21T01:28:15.704Z,8.00
2023-12-21T01:30:45.109Z,7.60
2023-12-21T01:33:13.243Z,7.40
2023-12-21T01:35:41.263Z,7.00
2023-12-21T01:38:09.185Z,7.40
2023-12-21T01:40:37.251Z,7.10
2023-12-21T01:43:05.585Z,7.10
2023-12-21T01:45:33.796Z,7.50
2023-12-21T01:48:03.870Z,7.40
2023-12-21T01:50:32.600Z,7.40
2023-12-21T01:53:01.987Z,7.40
2023-12-21T01:55:30.221Z,6.80
2023-12-21T01:57:59.194Z,7.40
2023-12-21T02:00:27.382Z,7.10
2023-12-21T02:02:55.479Z,7.20
2023-12-21T02:05:24.925Z,7.00
2023-12-21T02:07:52.965Z,7.50
2023-12-21T02:10:21.426Z,7.30
2023-12-21T02:12:50.156Z,7.50
2023-12-21T02:15:18.394Z,7.60
2023-12-21T02:17:51.367Z,6.90
2023-12-21T02:20:20.502Z,7.10
2023-12-21T02:22:52.168Z,7.70
2023-12-21T02:25:22.879Z,7.30
2023-12-21T02:27:51.844Z,7.30
2023-12-21T02:30:22.877Z,7.90
2023-12-21T02:32:51.636Z,7.30
2023-12-21T02:35:19.756Z,7.20
2023-12-21T02:37:47.711Z,8.40
2023-12-21T02:40:15.716Z,7.30
2023-12-21T02:42:45.574Z,7.30
2023-12-21T02:45:16.063Z,8.00
2023-12-21T02:47:44.336Z,7.60
2023-12-21T02:50:12.796Z,7.40
2023-12-21T02:52:41.227Z,7.30
2023-12-21T02:55:09.718Z,7.80
2023-12-21T02:57:37.917Z,8.10
2023-12-21T03:00:09.097Z,8.20
2023-12-21T03:02:37.024Z,7.90
2023-12-21T03:05:05.555Z,8.00
2023-12-21T03:07:33.557Z,8.20
2023-12-21T03:10:01.764Z,8.00
2023-12-21T03:12:29.756Z,7.40
2023-12-21T03:14:58.257Z,7.60
2023-12-21T03:17:27.703Z,8.50
2023-12-21T03:19:58.980Z,8.20
2023-12-21T03:22:27.406Z,7.90
2023-12-21T03:24:55.520Z,7.90
2023-12-21T03:27:23.473Z,7.50
2023-12-21T03:29:51.822Z,7.80
2023-12-21T03:32:19.799Z,7.60
2023-12-21T03:34:51.499Z,8.10
2023-12-21T03:37:19.520Z,7.40
2023-12-21T03:39:48.267Z,7.40
2023-12-21T03:42:16.178Z,7.60
2023-12-21T03:44:44.352Z,7.50
2023-12-21T03:47:12.302Z,8.10
2023-12-21T03:49:40.260Z,8.60
2023-12-21T03:52:11.259Z,8.30
2023-12-21T03:54:39.309Z,8.00
2023-12-21T03:57:07.626Z,7.60
2023-12-21T03:59:36.182Z,7.80
2023-12-21T04:02:04.442Z,7.60
2023-12-21T04:04:33.486Z,7.70
2023-12-21T04:07:01.579Z,8.30
2023-12-21T04:09:30.906Z,8.60
2023-12-21T04:11:58.897Z,8.20
2023-12-21T04:14:27.104Z,7.50
2023-12-21T04:16:55.338Z,7.90
2023-12-21T04:19:24.496Z,7.50
2023-12-21T04:21:51.725Z,8.00
2023-12-21T04:24:21.020Z,7.50
2023-12-21T04:26:50.677Z,8.10
2023-12-21T04:29:18.677Z,8.00
2023-12-21T04:31:46.922Z,8.00
2023-12-21T04:34:15.189Z,8.10
2023-12-21T04:36:43.185Z,8.10
2023-12-21T04:39:12.237Z,8.00
2023-12-21T04:41:40.467Z,8.00
2023-12-21T04:44:10.291Z,8.10
2023-12-21T04:46:38.896Z,8.10
2023-12-21T04:49:07.583Z,8.10
2023-12-21T04:51:36.446Z,8.20
2023-12-21T04:54:07.190Z,7.90
2023-12-21T04:56:35.235Z,7.90
2023-12-21T04:59:03.218Z,8.00
2023-12-21T05:01:32.646Z,7.60
2023-12-21T05:04:03.528Z,7.50
2023-12-21T05:06:31.480Z,7.40
2023-12-21T05:09:01.167Z,8.00
2023-12-21T05:11:29.587Z,7.80
2023-12-21T05:13:57.579Z,7.90
2023-12-21T05:16:29.918Z,7.80
2023-12-21T05:18:59.454Z,7.40
2023-12-21T05:21:27.565Z,7.50
2023-12-21T05:23:55.610Z,7.80
2023-12-21T05:26:23.602Z,8.00
2023-12-21T05:28:51.593Z,7.90
2023-12-21T05:31:25.512Z,7.90
2023-12-21T05:33:55.404Z,7.70
2023-12-21T05:36:26.253Z,8.00
2023-12-21T05:38:55.949Z,8.00
2023-12-21T05:41:24.072Z,7.70
2023-12-21T05:43:52.902Z,8.00
2023-12-21T05:46:21.041Z,7.90
2023-12-21T05:48:50.236Z,7.40
2023-12-21T05:51:18.552Z,8.20
2023-12-21T05:53:47.812Z,7.60
2023-12-21T05:56:15.771Z,7.70
2023-12-21T18:57:05.572Z,8.60
2023-12-21T18:59:35.476Z,8.60
2023-12-21T19:02:04.734Z,8.90
2023-12-21T19:04:32.975Z,8.50
2023-12-21T19:07:01.364Z,8.30
2023-12-21T19:09:29.363Z,9.10
2023-12-21T19:11:59.792Z,9.00
2023-12-21T19:14:29.251Z,8.80
2023-12-21T19:16:59.566Z,9.00
2023-12-21T19:19:27.903Z,8.50
2023-12-21T19:21:56.565Z,7.90
2023-12-21T19:24:24.735Z,8.20
2023-12-21T19:26:56.370Z,8.20
2023-12-21T19:29:24.635Z,8.30
2023-12-21T19:31:52.877Z,7.50
2023-12-21T19:34:22.684Z,8.20
2023-12-21T19:36:50.666Z,7.40
2023-12-21T19:39:18.843Z,8.40
2023-12-21T19:41:46.940Z,8.00
2023-12-21T19:44:15.333Z,7.70
2023-12-21T19:46:43.497Z,7.80
2023-12-21T19:49:13.717Z,7.10
2023-12-21T19:51:43.165Z,7.10
2023-12-21T19:54:13.291Z,7.60
2023-12-21T19:56:44.255Z,7.00
2023-12-21T19:59:19.440Z,7.30
2023-12-21T20:01:50.553Z,6.80
2023-12-21T20:04:19.668Z,7.80
2023-12-21T20:06:50.320Z,8.20
2023-12-21T20:09:19.217Z,7.50
2023-12-21T20:11:48.254Z,7.00
2023-12-21T20:14:16.208Z,7.90
2023-12-21T20:16:44.242Z,8.20
2023-12-21T20:19:12.679Z,7.70
2023-12-21T20:21:40.708Z,7.10
2023-12-21T20:24:10.477Z,7.80
2023-12-21T20:26:38.692Z,7.60
2023-12-21T20:29:07.072Z,7.40
2023-12-21T20:31:35.253Z,6.90
2023-12-21T20:34:03.272Z,6.80
2023-12-21T20:36:31.402Z,6.40
2023-12-21T20:38:59.297Z,5.80
2023-12-21T20:41:28.562Z,5.80
2023-12-21T20:43:56.829Z,6.00
2023-12-21T20:46:24.780Z,6.10
2023-12-21T20:48:52.761Z,6.60
2023-12-21T20:51:23.810Z,6.20
2023-12-21T20:53:52.793Z,5.70
2023-12-21T20:56:21.453Z,5.60
2023-12-21T20:58:51.980Z,6.10
2023-12-21T21:01:20.569Z,6.20
2023-12-21T21:03:49.448Z,6.40
2023-12-21T21:06:18.256Z,6.40
2023-12-21T21:08:46.285Z,5.80
2023-12-21T21:11:14.239Z,6.30
2023-12-21T21:13:42.116Z,6.40
2023-12-21T21:16:12.088Z,5.70
2023-12-21T21:18:40.253Z,6.50
2023-12-21T21:21:10.475Z,6.10
2023-12-21T21:23:38.390Z,6.50
2023-12-21T21:26:06.947Z,6.00
2023-12-21T21:28:35.206Z,6.50
2023-12-21T21:31:03.155Z,6.40
2023-12-21T21:33:32.665Z,6.00
2023-12-21T21:36:00.860Z,6.30
2023-12-21T21:38:29.504Z,5.90
2023-12-21T21:41:00.675Z,5.90
2023-12-21T21:43:32.587Z,6.70
2023-12-21T21:46:02.662Z,5.90
2023-12-21T21:48:34.136Z,5.80
2023-12-21T21:51:02.026Z,5.80
2023-12-21T21:53:29.904Z,5.90
2023-12-21T21:55:58.000Z,6.00
2023-12-21T21:58:27.447Z,5.30
2023-12-21T22:00:55.668Z,6.00
2023-12-21T22:03:23.589Z,5.60
2023-12-21T22:05:53.052Z,5.30
2023-12-21T22:08:21.296Z,5.80
2023-12-21T22:10:49.245Z,5.00
2023-12-21T22:13:17.237Z,5.60
2023-12-21T22:15:45.379Z,5.20
2023-12-21T22:18:13.608Z,5.00
2023-12-21T22:20:43.386Z,5.60
2023-12-21T22:23:12.874Z,5.30
2023-12-21T22:25:43.851Z,5.90
2023-12-21T22:28:11.846Z,5.00
2023-12-21T22:30:40.150Z,5.80
2023-12-21T22:33:10.615Z,5.70
2023-12-21T22:35:38.540Z,5.30
2023-12-21T22:38:06.444Z,5.60
2023-12-21T22:40:35.784Z,5.30
2023-12-21T22:43:06.686Z,5.40
2023-12-21T22:45:34.625Z,5.90
2023-12-21T22:48:02.828Z,5.10
2023-12-21T22:50:31.363Z,5.70
2023-12-21T22:53:00.180Z,5.70
2023-12-21T22:55:28.285Z,5.80
2023-12-21T22:57:57.952Z,5.40
2023-12-21T23:00:27.007Z,5.50
2023-12-21T23:02:55.156Z,5.80
2023-12-21T23:05:23.344Z,5.50
2023-12-21T23:07:51.819Z,5.80
2023-12-21T23:10:19.970Z,5.80
2023-12-21T23:12:48.507Z,6.10
2023-12-21T23:15:18.408Z,5.60
2023-12-21T23:17:46.535Z,5.70
2023-12-21T23:20:15.081Z,5.80
2023-12-21T23:22:43.177Z,6.40
2023-12-21T23:25:11.227Z,5.50
2023-12-21T23:27:39.282Z,5.70
2023-12-21T23:30:08.876Z,5.30
2023-12-21T23:32:38.373Z,5.70
2023-12-21T23:35:16.472Z,5.80
2023-12-21T23:37:48.127Z,5.90
2023-12-21T23:40:17.964Z,5.30
2023-12-21T23:42:46.299Z,5.40
2023-12-21T23:45:14.782Z,5.50
2023-12-21T23:47:44.136Z,5.80
2023-12-21T23:50:12.664Z,5.40
2023-12-21T23:52:40.811Z,5.90
2023-12-21T23:55:09.401Z,5.60
2023-12-21T23:57:37.335Z,5.90
